createdAt,value
2017-06-21T00:02:17.862Z,99.90
2017-06-21T00:04:45.350Z,99.90
2017-06-21T00:07:12.811Z,99.90
2017-06-21T00:09:40.272Z,99.90
2017-06-21T00:12:07.725Z,99.90
2017-06-21T00:14:35.302Z,99.90
2017-06-21T00:17:03.513Z,99.90
2017-06-21T00:19:30.946Z,99.90
2017-06-21T00:21:59.175Z,99.90
2017-06-21T00:24:26.605Z,99.90
2017-06-21T00:26:54.198Z,99.90
2017-06-21T00:29:21.668Z,99.90
2017-06-21T00:31:49.101Z,99.90
2017-06-21T00:34:16.534Z,99.90
2017-06-21T00:36:44.042Z,99.90
2017-06-21T00:39:11.584Z,99.90
2017-06-21T00:41:39.022Z,99.90
2017-06-21T00:44:06.478Z,99.90
2017-06-21T00:46:34.125Z,99.90
2017-06-21T00:49:01.603Z,99.90
2017-06-21T00:51:29.066Z,99.90
2017-06-21T00:53:56.515Z,99.90
2017-06-21T00:56:23.969Z,99.90
2017-06-21T00:58:51.426Z,99.90
2017-06-21T01:01:19.010Z,99.90
2017-06-21T01:03:46.478Z,99.90
2017-06-21T01:06:14.710Z,99.90
2017-06-21T01:08:42.158Z,99.90
2017-06-21T01:11:09.607Z,99.90
2017-06-21T01:13:37.061Z,99.90
2017-06-21T01:16:04.535Z,99.90
2017-06-21T01:18:31.990Z,99.90
2017-06-21T01:20:59.432Z,99.90
2017-06-21T01:23:26.942Z,99.90
2017-06-21T01:25:55.196Z,99.90
2017-06-21T01:28:22.642Z,99.90
2017-06-21T01:30:50.199Z,99.90
2017-06-21T01:33:17.658Z,99.90
2017-06-21T01:35:45.120Z,99.90
2017-06-21T01:38:12.567Z,99.90
2017-06-21T01:40:40.018Z,99.90
2017-06-21T01:43:07.490Z,99.90
2017-06-21T01:45:34.934Z,99.90
2017-06-21T01:48:02.420Z,99.90
2017-06-21T01:50:29.950Z,99.90
2017-06-21T01:52:57.589Z,99.90
2017-06-21T01:55:25.044Z,99.90
2017-06-21T01:57:52.468Z,99.90
2017-06-21T02:00:20.718Z,99.90
2017-06-21T02:02:48.175Z,99.90
2017-06-21T02:05:15.730Z,99.90
2017-06-21T02:07:43.167Z,99.90
2017-06-21T02:10:10.599Z,99.90
2017-06-21T02:12:38.081Z,99.90
2017-06-21T02:15:05.574Z,99.90
2017-06-21T02:17:32.987Z,99.90
2017-06-21T02:20:00.456Z,99.90
2017-06-21T02:22:27.894Z,99.90
2017-06-21T02:24:55.360Z,99.90
2017-06-21T02:27:22.817Z,99.90
2017-06-21T02:29:51.371Z,99.90
2017-06-21T02:32:18.955Z,99.90
2017-06-21T02:34:46.390Z,99.90
2017-06-21T02:37:13.871Z,99.90
2017-06-21T02:39:41.327Z,99.90
2017-06-21T02:42:08.789Z,99.90
2017-06-21T02:44:36.242Z,99.90
2017-06-21T02:47:03.798Z,99.90
2017-06-21T02:49:31.264Z,99.90
2017-06-21T02:51:58.706Z,99.90
2017-06-21T02:54:26.167Z,99.90
2017-06-21T02:56:53.618Z,99.90
2017-06-21T02:59:21.079Z,99.90
2017-06-21T03:01:48.758Z,99.90
2017-06-21T03:04:16.337Z,99.90
2017-06-21T03:06:43.871Z,99.90
2017-06-21T03:09:11.446Z,99.90
2017-06-21T03:11:38.878Z,99.90
2017-06-21T03:14:06.346Z,99.90
2017-06-21T03:16:33.884Z,99.90
2017-06-21T03:19:01.340Z,99.90
2017-06-21T03:21:29.010Z,99.90
2017-06-21T03:23:56.468Z,99.90
2017-06-21T03:26:23.935Z,99.90
2017-06-21T03:28:51.508Z,99.90
2017-06-21T03:31:19.116Z,99.90
2017-06-21T03:33:46.526Z,99.90
2017-06-21T03:36:14.772Z,99.90
2017-06-21T03:38:42.319Z,99.90
2017-06-21T03:41:09.794Z,99.90
2017-06-21T03:43:37.222Z,99.90
2017-06-21T03:46:04.697Z,99.90
2017-06-21T03:48:32.150Z,99.90
2017-06-21T03:50:59.595Z,99.90
2017-06-21T03:53:27.067Z,99.90
2017-06-21T03:55:54.524Z,99.90
2017-06-21T03:58:21.980Z,99.90
2017-06-21T04:00:49.510Z,99.90
2017-06-21T04:03:16.942Z,99.90
2017-06-21T04:05:44.388Z,99.90
2017-06-21T04:08:11.822Z,99.90
2017-06-21T04:10:40.166Z,99.90
2017-06-21T04:13:07.629Z,99.90
2017-06-21T04:15:35.069Z,99.90
2017-06-21T04:18:02.530Z,99.90
2017-06-21T04:20:30.002Z,99.90
2017-06-21T04:22:57.651Z,99.90
2017-06-21T04:25:25.326Z,99.90
2017-06-21T04:27:52.803Z,99.90
2017-06-21T04:30:20.226Z,99.90
2017-06-21T04:32:47.678Z,99.90
2017-06-21T04:35:15.151Z,99.90
2017-06-21T04:37:42.624Z,99.90
2017-06-21T04:40:10.086Z,99.70
2017-06-21T04:42:37.514Z,99.60
2017-06-21T04:45:05.014Z,99.90
2017-06-21T04:47:33.256Z,99.90
2017-06-21T04:50:00.695Z,99.90
2017-06-21T04:52:28.183Z,99.90
2017-06-21T04:54:55.621Z,99.90
2017-06-21T04:57:23.045Z,99.90
2017-06-21T04:59:50.542Z,99.90
2017-06-21T05:02:17.989Z,99.90
2017-06-21T05:04:45.453Z,99.90
2017-06-21T05:07:12.878Z,99.50
2017-06-21T05:09:40.459Z,98.90
2017-06-21T05:12:07.951Z,98.60
2017-06-21T05:14:35.479Z,98.10
2017-06-21T05:17:02.951Z,98.50
2017-06-21T05:19:30.431Z,98.70
2017-06-21T05:21:58.680Z,98.60
2017-06-21T05:24:26.127Z,98.90
2017-06-21T05:26:53.600Z,98.00
2017-06-21T05:29:21.167Z,98.30
2017-06-21T05:31:48.691Z,98.30
2017-06-21T05:34:16.131Z,98.20
2017-06-21T05:36:43.622Z,98.50
2017-06-21T05:39:11.059Z,98.00
2017-06-21T05:41:38.641Z,98.20
2017-06-21T05:44:06.088Z,97.60
2017-06-21T05:46:33.648Z,97.40
2017-06-21T05:49:01.176Z,96.80
2017-06-21T05:51:28.614Z,96.50
2017-06-21T05:53:56.190Z,96.40
2017-06-21T05:56:23.678Z,96.70
2017-06-21T05:58:51.320Z,96.30
2017-06-21T06:01:18.743Z,95.70
2017-06-21T06:03:46.269Z,95.70
2017-06-21T06:06:13.814Z,95.60
2017-06-21T06:08:41.443Z,95.90
2017-06-21T06:11:08.911Z,95.70
2017-06-21T06:13:36.350Z,95.70
2017-06-21T06:16:03.975Z,95.50
2017-06-21T06:18:32.195Z,95.50
2017-06-21T06:20:59.623Z,95.50
2017-06-21T06:23:27.086Z,94.80
2017-06-21T06:25:54.711Z,95.20
2017-06-21T06:28:22.142Z,95.00
2017-06-21T06:30:49.603Z,95.60
2017-06-21T06:33:17.045Z,95.20
2017-06-21T06:35:44.559Z,95.30
2017-06-21T06:38:12.972Z,94.60
2017-06-21T06:40:40.422Z,94.60
2017-06-21T06:43:07.991Z,94.40
2017-06-21T06:45:35.465Z,93.90
2017-06-21T06:48:02.931Z,94.30
2017-06-21T06:50:30.408Z,94.60
2017-06-21T06:52:57.839Z,94.70
2017-06-21T06:55:25.371Z,94.50
2017-06-21T06:57:52.859Z,93.90
2017-06-21T07:00:20.309Z,94.00
2017-06-21T07:02:47.781Z,94.50
2017-06-21T07:05:15.224Z,94.00
2017-06-21T07:07:42.753Z,93.60
2017-06-21T07:10:10.209Z,93.80
2017-06-21T07:12:37.769Z,93.80
2017-06-21T07:15:05.286Z,93.70
2017-06-21T07:17:33.498Z,93.30
2017-06-21T07:20:01.001Z,93.30
2017-06-21T07:22:28.563Z,93.40
2017-06-21T07:24:56.107Z,93.40
2017-06-21T07:27:23.579Z,93.20
2017-06-21T07:29:51.039Z,93.70
2017-06-21T07:32:19.234Z,93.90
2017-06-21T07:34:46.671Z,93.70
2017-06-21T07:37:14.895Z,94.20
2017-06-21T07:39:42.366Z,93.80
2017-06-21T07:42:09.822Z,93.70
2017-06-21T07:44:37.309Z,93.00
2017-06-21T07:47:04.762Z,93.20
2017-06-21T07:49:32.294Z,93.60
2017-06-21T07:51:59.937Z,93.00
2017-06-21T07:54:27.371Z,93.10
2017-06-21T07:56:54.949Z,93.20
2017-06-21T07:59:22.376Z,92.50
2017-06-21T08:01:49.965Z,92.80
2017-06-21T08:04:17.420Z,93.00
2017-06-21T08:06:44.860Z,93.40
2017-06-21T08:09:12.434Z,92.80
2017-06-21T08:11:39.919Z,93.10
2017-06-21T08:14:07.400Z,93.40
2017-06-21T08:16:34.951Z,93.10
2017-06-21T08:19:02.487Z,93.30
2017-06-21T08:21:29.940Z,93.20
2017-06-21T08:23:58.175Z,92.80
2017-06-21T08:26:26.383Z,93.10
2017-06-21T08:28:53.926Z,93.10
2017-06-21T08:31:21.352Z,92.90
2017-06-21T08:33:48.899Z,93.10
2017-06-21T08:36:16.427Z,92.80
2017-06-21T08:38:43.879Z,92.70
2017-06-21T08:41:11.423Z,92.70
2017-06-21T08:43:38.882Z,92.80
2017-06-21T08:46:06.331Z,92.90
2017-06-21T08:48:33.770Z,92.70
2017-06-21T08:51:01.255Z,92.30
2017-06-21T08:53:29.471Z,92.00
2017-06-21T08:55:56.967Z,91.90
2017-06-21T08:58:24.500Z,92.00
2017-06-21T09:00:51.968Z,91.50
2017-06-21T09:03:19.399Z,91.80
2017-06-21T09:05:46.900Z,91.10
2017-06-21T09:08:14.442Z,90.50
2017-06-21T09:10:41.911Z,90.70
2017-06-21T09:13:09.344Z,90.20
2017-06-21T09:15:36.849Z,90.10
2017-06-21T09:18:05.074Z,90.50
2017-06-21T09:20:32.609Z,90.50
2017-06-21T09:23:00.715Z,91.40
2017-06-21T09:25:28.175Z,91.30
2017-06-21T09:27:55.647Z,90.60
2017-06-21T09:30:23.894Z,91.50
2017-06-21T09:32:51.342Z,91.50
2017-06-21T09:35:18.795Z,90.80
2017-06-21T09:37:46.250Z,90.20
2017-06-21T09:40:14.258Z,90.20
2017-06-21T09:42:41.974Z,90.70
2017-06-21T09:45:09.461Z,90.80
2017-06-21T09:47:36.948Z,91.10
2017-06-21T09:50:05.147Z,91.20
2017-06-21T09:52:32.618Z,91.20
2017-06-21T09:55:00.189Z,91.60
2017-06-21T09:57:27.643Z,91.40
2017-06-21T09:59:55.071Z,91.30
2017-06-21T10:02:22.507Z,91.10
2017-06-21T10:04:49.946Z,91.00
2017-06-21T10:07:17.406Z,90.50
2017-06-21T10:09:44.847Z,90.40
2017-06-21T10:12:12.303Z,90.10
2017-06-21T10:14:40.526Z,90.40
2017-06-21T10:17:09.118Z,90.40
2017-06-21T10:19:36.578Z,90.40
2017-06-21T10:22:04.103Z,90.00
2017-06-21T10:24:31.559Z,89.70
2017-06-21T10:26:59.122Z,87.00
2017-06-21T10:29:26.554Z,87.80
2017-06-21T10:31:53.991Z,87.10
2017-06-21T10:34:21.428Z,87.70
2017-06-21T10:36:48.914Z,88.50
2017-06-21T10:39:16.391Z,88.80
2017-06-21T10:41:44.005Z,88.10
2017-06-21T10:44:11.515Z,88.40
2017-06-21T10:46:39.755Z,90.00
2017-06-21T10:49:07.228Z,89.70
2017-06-21T10:51:34.690Z,88.60
2017-06-21T10:54:02.312Z,88.30
2017-06-21T10:56:29.790Z,88.60
2017-06-21T10:58:57.260Z,88.40
2017-06-21T11:01:24.695Z,88.60
2017-06-21T11:03:52.215Z,88.80
2017-06-21T11:06:19.758Z,88.50
2017-06-21T11:08:48.100Z,89.20
2017-06-21T11:11:15.550Z,89.10
2017-06-21T11:13:43.031Z,89.70
2017-06-21T11:16:10.544Z,88.60
2017-06-21T11:18:38.019Z,89.10
2017-06-21T11:21:05.475Z,87.90
2017-06-21T11:23:32.971Z,88.50
2017-06-21T11:26:01.174Z,88.50
2017-06-21T11:28:28.774Z,88.40
2017-06-21T11:30:56.275Z,88.10
2017-06-21T11:33:23.891Z,88.10
2017-06-21T11:35:51.363Z,87.90
2017-06-21T11:38:19.495Z,89.50
2017-06-21T11:40:47.667Z,88.80
2017-06-21T11:43:15.155Z,88.70
2017-06-21T11:45:42.701Z,88.50
2017-06-21T11:48:10.179Z,89.50
2017-06-21T11:50:37.615Z,88.60
2017-06-21T11:53:05.185Z,87.90
2017-06-21T11:55:32.647Z,88.70
2017-06-21T11:58:00.108Z,88.40
2017-06-21T12:00:27.541Z,88.50
2017-06-21T12:02:55.028Z,88.70
2017-06-21T12:05:22.826Z,89.50
2017-06-21T12:07:51.077Z,88.00
2017-06-21T12:10:19.334Z,86.20
2017-06-21T12:12:46.886Z,85.80
2017-06-21T12:15:14.345Z,83.10
2017-06-21T12:17:41.799Z,85.90
2017-06-21T12:20:09.459Z,86.40
2017-06-21T12:22:37.007Z,86.30
2017-06-21T12:25:04.458Z,86.70
2017-06-21T12:27:31.914Z,86.10
2017-06-21T12:29:59.463Z,87.10
2017-06-21T12:32:26.929Z,85.70
2017-06-21T12:34:54.362Z,85.50
2017-06-21T12:37:21.962Z,85.60
2017-06-21T12:42:24.005Z,84.00
2017-06-21T12:44:51.530Z,83.80
2017-06-21T12:47:19.758Z,83.60
2017-06-21T12:49:47.231Z,83.50
2017-06-21T12:52:14.658Z,82.70
2017-06-21T12:54:42.101Z,81.50
2017-06-21T12:57:09.809Z,81.90
2017-06-21T12:59:37.343Z,81.50
2017-06-21T13:02:04.934Z,80.70
2017-06-21T13:04:32.483Z,80.00
2017-06-21T13:07:00.113Z,81.40
2017-06-21T13:09:27.618Z,82.70
2017-06-21T13:11:55.855Z,80.80
2017-06-21T13:14:23.291Z,80.60
2017-06-21T13:16:50.769Z,81.30
2017-06-21T13:19:18.214Z,80.30
2017-06-21T13:21:45.681Z,80.70
2017-06-21T13:24:13.125Z,80.30
2017-06-21T13:26:40.566Z,79.40
2017-06-21T13:29:08.029Z,79.20
2017-06-21T13:31:35.530Z,80.50
2017-06-21T13:34:03.144Z,80.90
2017-06-21T13:36:30.566Z,78.80
2017-06-21T13:38:58.907Z,77.70
2017-06-21T13:41:26.405Z,77.60
2017-06-21T13:43:53.907Z,78.80
2017-06-21T13:46:21.473Z,80.10
2017-06-21T13:48:49.010Z,79.50
2017-06-21T13:51:16.525Z,79.30
2017-06-21T13:53:43.982Z,80.30
2017-06-21T13:56:12.232Z,78.30
2017-06-21T13:58:39.663Z,78.10
2017-06-21T14:01:07.148Z,76.90
2017-06-21T14:03:34.587Z,76.00
2017-06-21T14:06:02.139Z,76.80
2017-06-21T14:08:29.650Z,77.30
2017-06-21T14:10:57.215Z,77.80
2017-06-21T14:13:24.852Z,78.10
2017-06-21T14:15:52.386Z,77.00
2017-06-21T14:18:19.822Z,75.60
2017-06-21T14:20:47.307Z,74.80
2017-06-21T14:23:14.753Z,73.00
2017-06-21T14:25:42.186Z,73.70
2017-06-21T14:28:09.658Z,73.20
2017-06-21T14:30:37.127Z,75.20
2017-06-21T14:33:04.599Z,75.70
2017-06-21T14:35:32.032Z,65.10
2017-06-21T14:37:59.475Z,67.70
2017-06-21T14:40:27.021Z,72.10
2017-06-21T14:42:54.446Z,72.90
2017-06-21T14:45:21.939Z,72.50
2017-06-21T14:47:49.370Z,72.90
2017-06-21T14:50:16.845Z,72.70
2017-06-21T14:52:44.262Z,72.10
2017-06-21T14:55:12.499Z,71.10
2017-06-21T14:57:39.979Z,71.00
2017-06-21T15:00:07.427Z,73.10
2017-06-21T15:02:34.946Z,72.80
2017-06-21T15:05:02.376Z,72.80
2017-06-21T15:07:29.830Z,70.90
2017-06-21T15:09:57.417Z,72.10
2017-06-21T15:12:25.334Z,71.90
2017-06-21T15:14:54.479Z,72.60
2017-06-21T15:17:22.039Z,73.00
2017-06-21T15:19:49.457Z,70.90
2017-06-21T15:22:17.664Z,66.00
2017-06-21T15:24:45.125Z,65.80
2017-06-21T15:27:12.603Z,64.00
2017-06-21T15:29:40.062Z,60.60
2017-06-21T15:32:07.543Z,62.70
2017-06-21T15:34:35.778Z,65.00
2017-06-21T15:37:03.326Z,65.60
2017-06-21T15:39:30.831Z,65.20
2017-06-21T15:41:58.342Z,65.50
2017-06-21T15:44:25.930Z,64.40
2017-06-21T15:46:53.421Z,63.90
2017-06-21T15:49:21.656Z,63.00
2017-06-21T15:51:49.096Z,62.90
2017-06-21T15:54:16.562Z,63.50
2017-06-21T15:56:43.988Z,65.10
2017-06-21T15:59:11.651Z,64.60
2017-06-21T16:01:39.063Z,64.70
2017-06-21T16:04:06.631Z,66.50
2017-06-21T16:06:34.155Z,68.60
2017-06-21T16:09:01.693Z,69.90
2017-06-21T16:11:29.104Z,69.60
2017-06-21T16:13:57.344Z,67.70
2017-06-21T16:16:24.801Z,67.50
2017-06-21T16:18:52.437Z,65.40
2017-06-21T16:21:19.952Z,64.30
2017-06-21T16:23:47.494Z,64.70
2017-06-21T16:26:14.928Z,63.70
2017-06-21T16:28:42.571Z,61.60
2017-06-21T16:31:10.126Z,62.20
2017-06-21T16:33:37.573Z,62.30
2017-06-21T16:36:05.015Z,62.30
2017-06-21T16:38:32.465Z,63.20
2017-06-21T16:41:00.753Z,61.80
2017-06-21T16:43:29.010Z,62.50
2017-06-21T16:45:56.527Z,62.40
2017-06-21T16:48:23.963Z,62.90
2017-06-21T16:50:51.397Z,63.40
2017-06-21T16:53:18.850Z,62.10
2017-06-21T16:55:46.386Z,61.30
2017-06-21T16:58:14.636Z,59.50
2017-06-21T17:00:42.080Z,59.50
2017-06-21T17:03:09.619Z,59.10
2017-06-21T17:05:37.086Z,58.90
2017-06-21T17:08:04.552Z,58.40
2017-06-21T17:10:32.020Z,58.50
2017-06-21T17:12:59.635Z,58.40
2017-06-21T17:15:27.075Z,58.30
2017-06-21T17:17:55.306Z,58.40
2017-06-21T17:20:22.751Z,58.30
2017-06-21T17:22:50.213Z,58.50
2017-06-21T17:25:17.700Z,59.10
2017-06-21T17:27:45.628Z,59.40
2017-06-21T17:30:13.073Z,58.80
2017-06-21T17:32:40.507Z,57.00
2017-06-21T17:35:07.981Z,55.70
2017-06-21T17:37:35.462Z,56.50
2017-06-21T17:40:02.918Z,57.40
2017-06-21T17:42:30.355Z,57.50
2017-06-21T17:44:57.898Z,58.70
2017-06-21T17:47:25.328Z,59.80
2017-06-21T17:49:53.703Z,64.70
2017-06-21T17:52:21.934Z,64.20
2017-06-21T17:54:49.406Z,64.00
2017-06-21T17:57:16.947Z,64.10
2017-06-21T17:59:44.493Z,63.60
2017-06-21T18:02:11.994Z,64.00
2017-06-21T18:04:39.423Z,64.40
2017-06-21T18:07:06.891Z,64.70
2017-06-21T18:09:34.338Z,65.10
2017-06-21T18:12:01.878Z,65.00
2017-06-21T18:14:29.311Z,65.00
2017-06-21T18:16:56.786Z,65.20
2017-06-21T18:19:24.288Z,65.50
2017-06-21T18:21:51.734Z,65.30
2017-06-21T18:24:19.190Z,65.40
2017-06-21T18:26:46.622Z,66.10
2017-06-21T18:29:14.331Z,66.60
2017-06-21T18:31:41.854Z,67.50
2017-06-21T18:34:09.389Z,67.90
2017-06-21T18:36:36.831Z,69.40
2017-06-21T18:39:04.329Z,69.80
2017-06-21T18:41:31.883Z,70.50
2017-06-21T18:43:59.340Z,71.00
2017-06-21T18:46:26.831Z,71.80
2017-06-21T18:48:54.302Z,71.30
2017-06-21T18:51:22.506Z,72.50
2017-06-21T18:53:50.005Z,72.40
2017-06-21T18:56:17.573Z,72.80
2017-06-21T18:58:45.044Z,73.20
2017-06-21T19:01:13.458Z,73.90
2017-06-21T19:03:41.050Z,74.30
2017-06-21T19:06:08.496Z,75.70
2017-06-21T19:08:35.932Z,76.60
2017-06-21T19:11:03.431Z,77.20
2017-06-21T19:13:30.862Z,77.40
2017-06-21T19:15:59.320Z,79.90
2017-06-21T19:18:26.811Z,80.30
2017-06-21T19:20:54.284Z,82.10
2017-06-21T19:23:21.731Z,83.30
2017-06-21T19:25:49.270Z,84.30
2017-06-21T19:28:16.699Z,84.70
2017-06-21T19:30:44.289Z,85.20
2017-06-21T19:33:11.767Z,85.60
2017-06-21T19:35:39.230Z,85.70
2017-06-21T19:38:06.674Z,85.90
2017-06-21T19:40:34.131Z,85.40
2017-06-21T19:43:01.676Z,85.10
2017-06-21T19:45:29.129Z,85.20
2017-06-21T19:47:56.592Z,85.30
2017-06-21T19:50:24.018Z,86.00
2017-06-21T19:52:51.470Z,86.20
2017-06-21T19:55:18.908Z,85.70
2017-06-21T19:57:47.331Z,86.00
2017-06-21T20:00:14.783Z,86.20
2017-06-21T20:02:42.242Z,85.20
2017-06-21T20:05:09.691Z,86.30
2017-06-21T20:07:37.147Z,86.60
2017-06-21T20:10:04.591Z,87.70
2017-06-21T20:12:32.064Z,87.70
2017-06-21T20:14:59.639Z,88.50
2017-06-21T20:17:27.111Z,89.10
2017-06-21T20:19:54.531Z,89.40
2017-06-21T20:22:22.094Z,89.60
2017-06-21T20:24:49.660Z,89.90
2017-06-21T20:27:17.134Z,89.50
2017-06-21T20:29:44.573Z,88.50
2017-06-21T20:32:12.056Z,88.30
2017-06-21T20:34:39.508Z,87.40
2017-06-21T20:37:06.958Z,88.50
2017-06-21T20:39:34.551Z,88.40
2017-06-21T20:42:02.071Z,88.30
2017-06-21T20:44:29.499Z,88.90
2017-06-21T20:46:56.930Z,90.00
2017-06-21T20:49:24.453Z,90.40
2017-06-21T20:51:51.863Z,90.60
2017-06-21T20:54:19.332Z,90.60
2017-06-21T20:56:46.770Z,90.60
2017-06-21T20:59:14.226Z,90.70
2017-06-21T21:01:41.707Z,90.90
2017-06-21T21:04:09.174Z,91.10
2017-06-21T21:06:36.715Z,91.20
2017-06-21T21:09:04.163Z,91.10
2017-06-21T21:11:31.630Z,91.10
2017-06-21T21:13:59.084Z,91.20
2017-06-21T21:16:26.567Z,91.40
2017-06-21T21:18:53.998Z,91.50
2017-06-21T21:21:21.453Z,91.60
2017-06-21T21:23:48.941Z,91.80
2017-06-21T21:26:16.468Z,91.80
2017-06-21T21:28:43.923Z,91.90
2017-06-21T21:31:11.374Z,92.10
2017-06-21T21:33:38.843Z,92.20
2017-06-21T21:36:06.286Z,92.30
2017-06-21T21:38:33.846Z,92.80
2017-06-21T21:41:01.434Z,92.50
2017-06-21T21:43:28.862Z,92.40
2017-06-21T21:45:56.299Z,92.60
2017-06-21T21:48:23.829Z,92.90
2017-06-21T21:50:51.280Z,93.30
2017-06-21T21:53:19.507Z,93.90
2017-06-21T21:55:46.952Z,93.80
2017-06-21T21:58:14.450Z,94.10
2017-06-21T22:00:41.875Z,94.20
2017-06-21T22:03:09.393Z,93.90
2017-06-21T22:05:36.852Z,93.80
2017-06-21T22:08:04.346Z,93.90
2017-06-21T22:10:31.806Z,93.80
2017-06-21T22:12:59.290Z,93.80
2017-06-21T22:15:26.816Z,93.70
2017-06-21T22:17:54.262Z,94.10
2017-06-21T22:20:21.738Z,94.10
2017-06-21T22:22:49.296Z,94.20
2017-06-21T22:25:16.744Z,94.20
2017-06-21T22:27:44.691Z,94.40
2017-06-21T22:30:12.180Z,94.60
2017-06-21T22:32:39.631Z,94.80
2017-06-21T22:35:07.067Z,95.10
2017-06-21T22:37:34.521Z,95.10
2017-06-21T22:40:01.965Z,95.30
2017-06-21T22:42:29.390Z,95.40
2017-06-21T22:44:57.620Z,95.60
2017-06-21T22:47:25.149Z,95.50
2017-06-21T22:49:52.574Z,95.70
2017-06-21T22:52:20.819Z,95.90
2017-06-21T22:54:48.339Z,95.80
2017-06-21T22:57:15.775Z,95.90
2017-06-21T22:59:43.982Z,95.80
2017-06-21T23:02:11.491Z,95.80
2017-06-21T23:04:39.043Z,95.90
2017-06-21T23:07:06.602Z,96.00
2017-06-21T23:09:34.034Z,96.10
2017-06-21T23:12:01.479Z,96.20
2017-06-21T23:14:28.925Z,96.20
2017-06-21T23:16:56.400Z,96.30
2017-06-21T23:19:23.855Z,96.40
2017-06-21T23:21:51.314Z,96.40
2017-06-21T23:24:18.782Z,96.50
2017-06-21T23:26:46.226Z,96.60
2017-06-21T23:29:13.678Z,96.50
2017-06-21T23:31:41.143Z,96.60
2017-06-21T23:34:08.694Z,96.80
2017-06-21T23:36:36.127Z,96.90
2017-06-21T23:39:03.571Z,97.00
2017-06-21T23:41:31.026Z,96.90
2017-06-21T23:43:58.459Z,96.80
2017-06-21T23:46:26.659Z,96.80
2017-06-21T23:48:54.170Z,96.70
2017-06-21T23:51:21.714Z,96.80
2017-06-21T23:53:49.192Z,97.00
2017-06-21T23:56:16.719Z,97.20
2017-06-21T23:58:44.170Z,97.30
